Kastav — 9AA6417 — position and weather

sailwx.info

Track history (hours):
 
Tides and Currents Weather Stations Pressure Air Temp Water Temp Dewpoint Dewpoint Depression Visibility Wind Speed Wind Dir Waves Ship Positions

Kastav

Last reported at 2014-Nov-09 17:09 UTC. Time now 2014-Nov-24 12:33 UTC.
Position N 35°58' W 005°33'.
Warning: this ship's position is 14 days out of date.

Length 195 m; draft 8.6 m.

Type: Ship. MMSI: 238257000.

Date/timePositionNaut miles runAvg speedWind from/ knotsBaromVisibWave heightAir tempDewpointWater temp
2014-Nov-09 17:09N 35°58' W 005°33'711.0
2014-Nov-09 16:30N 36°01' W 005°25'4 4.7
2014-Nov-09 15:32N 36°05' W 005°24'0 0.1
2014-Nov-09 14:31N 36°05' W 005°24'0 0.2
2014-Nov-09 13:28N 36°05' W 005°24'0 0.1
2014-Nov-09 12:31N 36°05' W 005°24'0 0.0
2014-Nov-09 11:28N 36°05' W 005°24'0 0.1
2014-Nov-09 10:16N 36°05' W 005°24'0 0.2
2014-Nov-09 09:31N 36°05' W 005°24'0 0.0
2014-Nov-09 08:31N 36°05' W 005°24'0 0.0
2014-Nov-09 07:31N 36°05' W 005°24'0 0.0
2014-Nov-09 06:31N 36°05' W 005°24'0 0.1
2014-Nov-09 05:25N 36°05' W 005°24'0 0.2
2014-Nov-09 04:31N 36°05' W 005°24'0 0.0
2014-Nov-09 03:31N 36°05' W 005°24'0 0.0
2014-Nov-09 02:31N 36°05' W 005°24'0 0.1
2014-Nov-09 01:31N 36°05' W 005°24'0 0.1
2014-Nov-09 00:28N 36°05' W 005°24'0 0.1
2014-Nov-08 23:31N 36°05' W 005°24'2 1.6
2014-Nov-08 22:18N 36°05' W 005°21'7 9.2
2014-Nov-08 21:33N 36°05' W 005°13'  
2014-Nov-05 15:32N 38°19' E 015°10'9 8.8
2014-Nov-05 14:32N 38°13' E 015°18'0 0.1
2014-Nov-05 13:32N 38°13' E 015°18'0 0.0
2014-Nov-05 12:32N 38°13' E 015°18'0 0.0
2014-Nov-05 11:32N 38°13' E 015°18'0 0.0
2014-Nov-05 10:32N 38°13' E 015°18'0 0.0
2014-Nov-05 09:29N 38°13' E 015°18'0 0.1
2014-Nov-05 08:29N 38°13' E 015°18'0 0.1
2014-Nov-05 07:29N 38°13' E 015°18'0 0.1
2014-Nov-05 06:32N 38°13' E 015°18'  
2014-Nov-02 15:17N 38°13' E 015°16'0 0.3
2014-Nov-02 14:33N 38°13' E 015°16'2 1.9
2014-Nov-02 13:31N 38°13' E 015°18'0 0.0
2014-Nov-02 12:31N 38°13' E 015°18'0 0.1
2014-Nov-02 11:31N 38°13' E 015°18'0 0.0
2014-Nov-02 10:31N 38°13' E 015°18'0 0.0
2014-Nov-02 09:31N 38°13' E 015°18'0 0.0
2014-Nov-02 08:31N 38°13' E 015°18'0 0.1
2014-Nov-02 07:31N 38°13' E 015°18'0 0.0
2014-Nov-02 06:31N 38°13' E 015°18'0 0.0
2014-Nov-01 19:07N 38°13' E 015°18'0 0.0
2014-Nov-01 18:31N 38°13' E 015°18'0 0.1
2014-Nov-01 17:31N 38°13' E 015°18'0 0.1
2014-Nov-01 16:31N 38°13' E 015°18'0 0.1
2014-Nov-01 15:31N 38°13' E 015°18'0 0.0
2014-Nov-01 14:31N 38°13' E 015°18'0 0.0
2014-Nov-01 13:31N 38°13' E 015°18'0 0.0
2014-Nov-01 12:31N 38°13' E 015°18'0 0.0
2014-Nov-01 11:31N 38°13' E 015°18'0 0.0
2014-Nov-01 10:31N 38°13' E 015°18'0 0.0
2014-Nov-01 09:31N 38°13' E 015°18'0 0.0
2014-Nov-01 08:31N 38°13' E 015°18'0 0.1
2014-Nov-01 07:31N 38°13' E 015°18'0 0.0
2014-Nov-01 06:28N 38°13' E 015°18'0 0.0
2014-Oct-31 17:31N 38°13' E 015°18'0 0.0
2014-Oct-31 16:31N 38°13' E 015°18'0 0.0
2014-Oct-31 15:31N 38°13' E 015°18'0 0.0
2014-Oct-31 14:31N 38°13' E 015°18'0 0.0
2014-Oct-31 13:31N 38°13' E 015°18'0 0.0
2014-Oct-31 12:31N 38°13' E 015°18'0 0.0
2014-Oct-31 11:31N 38°13' E 015°18'0 0.0
2014-Oct-31 10:31N 38°13' E 015°18'0 0.0
2014-Oct-31 09:28N 38°13' E 015°18'0 0.0
2014-Oct-31 08:28N 38°13' E 015°18'0 0.1
2014-Oct-31 07:28N 38°13' E 015°18'0 0.0
2014-Oct-31 06:28N 38°13' E 015°18'0 0.0
2014-Oct-30 17:28N 38°13' E 015°19'  
Track history (hours):
 
Tides and Currents Weather Stations Pressure Air Temp Water Temp Dewpoint Dewpoint Depression Visibility Wind Speed Wind Dir Waves Ship Positions

Kastav

Last reported at 2014-Nov-09 17:09 UTC. Time now 2014-Nov-24 12:33 UTC.
Position N 35°58' W 005°33'.
Warning: this ship's position is 14 days out of date.

Length 195 m; draft 8.6 m.

Type: Ship. MMSI: 238257000.

Date/timePositionNaut miles runAvg speedWind from/ knotsBaromVisibWave heightAir tempDewpointWater temp
2014-Nov-09 17:09N 35°58' W 005°33'711.0
2014-Nov-09 16:30N 36°01' W 005°25'4 4.7
2014-Nov-09 15:32N 36°05' W 005°24'0 0.1
2014-Nov-09 14:31N 36°05' W 005°24'0 0.2
2014-Nov-09 13:28N 36°05' W 005°24'0 0.1
2014-Nov-09 12:31N 36°05' W 005°24'0 0.0
2014-Nov-09 11:28N 36°05' W 005°24'0 0.1
2014-Nov-09 10:16N 36°05' W 005°24'0 0.2
2014-Nov-09 09:31N 36°05' W 005°24'0 0.0
2014-Nov-09 08:31N 36°05' W 005°24'0 0.0
2014-Nov-09 07:31N 36°05' W 005°24'0 0.0
2014-Nov-09 06:31N 36°05' W 005°24'0 0.1
2014-Nov-09 05:25N 36°05' W 005°24'0 0.2
2014-Nov-09 04:31N 36°05' W 005°24'0 0.0
2014-Nov-09 03:31N 36°05' W 005°24'0 0.0
2014-Nov-09 02:31N 36°05' W 005°24'0 0.1
2014-Nov-09 01:31N 36°05' W 005°24'0 0.1
2014-Nov-09 00:28N 36°05' W 005°24'0 0.1
2014-Nov-08 23:31N 36°05' W 005°24'2 1.6
2014-Nov-08 22:18N 36°05' W 005°21'7 9.2
2014-Nov-08 21:33N 36°05' W 005°13'  
2014-Nov-05 15:32N 38°19' E 015°10'9 8.8
2014-Nov-05 14:32N 38°13' E 015°18'0 0.1
2014-Nov-05 13:32N 38°13' E 015°18'0 0.0
2014-Nov-05 12:32N 38°13' E 015°18'0 0.0
2014-Nov-05 11:32N 38°13' E 015°18'0 0.0
2014-Nov-05 10:32N 38°13' E 015°18'0 0.0
2014-Nov-05 09:29N 38°13' E 015°18'0 0.1
2014-Nov-05 08:29N 38°13' E 015°18'0 0.1
2014-Nov-05 07:29N 38°13' E 015°18'0 0.1
2014-Nov-05 06:32N 38°13' E 015°18'  
2014-Nov-02 15:17N 38°13' E 015°16'0 0.3
2014-Nov-02 14:33N 38°13' E 015°16'2 1.9
2014-Nov-02 13:31N 38°13' E 015°18'0 0.0
2014-Nov-02 12:31N 38°13' E 015°18'0 0.1
2014-Nov-02 11:31N 38°13' E 015°18'0 0.0
2014-Nov-02 10:31N 38°13' E 015°18'0 0.0
2014-Nov-02 09:31N 38°13' E 015°18'0 0.0
2014-Nov-02 08:31N 38°13' E 015°18'0 0.1
2014-Nov-02 07:31N 38°13' E 015°18'0 0.0
2014-Nov-02 06:31N 38°13' E 015°18'0 0.0
2014-Nov-01 19:07N 38°13' E 015°18'0 0.0
2014-Nov-01 18:31N 38°13' E 015°18'0 0.1
2014-Nov-01 17:31N 38°13' E 015°18'0 0.1
2014-Nov-01 16:31N 38°13' E 015°18'0 0.1
2014-Nov-01 15:31N 38°13' E 015°18'0 0.0
2014-Nov-01 14:31N 38°13' E 015°18'0 0.0
2014-Nov-01 13:31N 38°13' E 015°18'0 0.0
2014-Nov-01 12:31N 38°13' E 015°18'0 0.0
2014-Nov-01 11:31N 38°13' E 015°18'0 0.0
2014-Nov-01 10:31N 38°13' E 015°18'0 0.0
2014-Nov-01 09:31N 38°13' E 015°18'0 0.0
2014-Nov-01 08:31N 38°13' E 015°18'0 0.1
2014-Nov-01 07:31N 38°13' E 015°18'0 0.0
2014-Nov-01 06:28N 38°13' E 015°18'0 0.0
2014-Oct-31 17:31N 38°13' E 015°18'0 0.0
2014-Oct-31 16:31N 38°13' E 015°18'0 0.0
2014-Oct-31 15:31N 38°13' E 015°18'0 0.0
2014-Oct-31 14:31N 38°13' E 015°18'0 0.0
2014-Oct-31 13:31N 38°13' E 015°18'0 0.0
2014-Oct-31 12:31N 38°13' E 015°18'0 0.0
2014-Oct-31 11:31N 38°13' E 015°18'0 0.0
2014-Oct-31 10:31N 38°13' E 015°18'0 0.0
2014-Oct-31 09:28N 38°13' E 015°18'0 0.0
2014-Oct-31 08:28N 38°13' E 015°18'0 0.1
2014-Oct-31 07:28N 38°13' E 015°18'0 0.0
2014-Oct-31 06:28N 38°13' E 015°18'0 0.0
2014-Oct-30 17:28N 38°13' E 015°19'  

Dump ship's entire track history